createdAt,value
2022-08-19T00:00:36.930Z,2916
2022-08-19T00:01:38.051Z,2902
2022-08-19T00:02:36.946Z,2888
2022-08-19T00:03:36.925Z,2898
2022-08-19T00:04:36.975Z,2909
2022-08-19T00:05:36.922Z,2879
2022-08-19T00:06:36.930Z,2941
2022-08-19T00:07:36.933Z,2895
2022-08-19T00:08:36.921Z,2865
2022-08-19T00:09:36.927Z,2907
2022-08-19T00:10:36.922Z,2935
2022-08-19T00:11:36.912Z,2907
2022-08-19T00:12:36.912Z,2914
2022-08-19T00:13:36.943Z,2884
2022-08-19T00:14:36.912Z,2923
2022-08-19T00:15:36.907Z,2932
2022-08-19T00:16:36.912Z,2895
2022-08-19T00:17:36.912Z,2863
2022-08-19T00:18:36.920Z,2826
2022-08-19T00:19:36.911Z,2861
2022-08-19T00:20:36.903Z,2861
2022-08-19T00:21:36.917Z,2849
2022-08-19T00:22:36.899Z,2872
2022-08-19T00:23:36.898Z,2854
2022-08-19T00:24:36.893Z,2858
2022-08-19T00:25:36.912Z,2865
2022-08-19T00:26:36.904Z,2863
2022-08-19T00:27:36.912Z,2828
2022-08-19T00:28:36.895Z,2840
2022-08-19T00:29:36.898Z,2888
2022-08-19T00:30:36.905Z,2856
2022-08-19T00:31:36.908Z,2824
2022-08-19T00:32:36.892Z,2844
2022-08-19T00:33:36.892Z,2849
2022-08-19T00:34:36.887Z,2824
2022-08-19T00:35:36.899Z,2835
2022-08-19T00:36:36.884Z,2849
2022-08-19T00:37:36.886Z,2821
2022-08-19T00:38:37.470Z,2842
2022-08-19T00:39:36.955Z,2868
2022-08-19T00:40:36.889Z,2851
2022-08-19T00:41:36.882Z,2844
2022-08-19T00:42:36.892Z,2840
2022-08-19T00:43:36.878Z,2782
2022-08-19T00:44:36.886Z,2840
2022-08-19T00:45:36.880Z,2872
2022-08-19T00:46:36.884Z,2858
2022-08-19T00:47:36.875Z,2838
2022-08-19T00:48:36.869Z,2826
2022-08-19T00:49:36.870Z,2801
2022-08-19T00:50:36.880Z,2814
2022-08-19T00:51:36.870Z,2812
2022-08-19T00:52:36.879Z,2819
2022-08-19T00:53:36.869Z,2821
2022-08-19T00:54:36.865Z,2808
2022-08-19T00:55:36.869Z,2847
2022-08-19T00:56:36.867Z,2808
2022-08-19T00:57:36.874Z,2819
2022-08-19T00:58:36.869Z,2835
2022-08-19T01:00:01.186Z,2828
2022-08-19T01:00:36.862Z,2796
2022-08-19T01:01:36.991Z,2810
2022-08-19T01:02:36.886Z,2789
2022-08-19T01:03:56.821Z,2810
2022-08-19T01:04:36.850Z,2805
2022-08-19T01:05:36.846Z,2803
2022-08-19T01:06:36.867Z,2798
2022-08-19T01:07:38.097Z,2778
2022-08-19T01:08:36.853Z,2808
2022-08-19T01:09:36.877Z,2780
2022-08-19T01:10:37.048Z,2808
2022-08-19T01:11:36.850Z,2791
2022-08-19T01:12:36.853Z,2794
2022-08-19T01:13:49.448Z,2801
2022-08-19T01:14:36.843Z,2814
2022-08-19T01:15:36.844Z,2771
2022-08-19T01:16:36.846Z,2775
2022-08-19T01:17:36.849Z,2784
2022-08-19T01:18:36.849Z,2771
2022-08-19T01:19:43.566Z,2798
2022-08-19T01:20:36.844Z,2773
2022-08-19T01:21:36.836Z,2780
2022-08-19T01:22:36.832Z,2768
2022-08-19T01:23:36.841Z,2764
2022-08-19T01:24:36.835Z,2775
2022-08-19T01:25:36.831Z,2782
2022-08-19T01:26:36.835Z,2766
2022-08-19T01:27:42.993Z,2775
2022-08-19T01:28:40.165Z,2787
2022-08-19T01:29:36.822Z,2771
2022-08-19T01:30:36.828Z,2748
2022-08-19T01:31:36.829Z,2761
2022-08-19T01:32:36.838Z,2757
2022-08-19T01:33:36.835Z,2759
2022-08-19T01:34:36.833Z,2757
2022-08-19T01:35:36.819Z,2768
2022-08-19T01:36:36.816Z,2745
2022-08-19T01:37:36.826Z,2761
2022-08-19T01:38:36.817Z,2759
2022-08-19T01:39:36.889Z,2766
2022-08-19T01:40:36.826Z,2775
2022-08-19T01:41:36.817Z,2782
2022-08-19T01:42:36.807Z,2796
2022-08-19T01:43:36.809Z,2775
2022-08-19T01:44:36.809Z,2761
2022-08-19T01:45:36.824Z,2775
2022-08-19T01:46:36.805Z,2761
2022-08-19T01:47:36.812Z,2741
2022-08-19T01:48:36.797Z,2752
2022-08-19T01:49:36.803Z,2761
2022-08-19T01:50:36.820Z,2748
2022-08-19T01:51:39.861Z,2752
2022-08-19T01:52:36.809Z,2718
2022-08-19T01:53:36.802Z,2745
2022-08-19T01:54:36.799Z,2778
2022-08-19T01:55:36.804Z,2748
2022-08-19T01:56:36.792Z,2729
2022-08-19T01:57:36.804Z,2745
2022-08-19T01:58:36.792Z,2743
2022-08-19T01:59:36.789Z,2771
2022-08-19T02:00:36.788Z,2750
2022-08-19T02:01:36.871Z,2734
2022-08-19T02:02:36.823Z,2722
2022-08-19T02:03:36.788Z,2745
2022-08-19T02:04:36.789Z,2715
2022-08-19T02:05:36.794Z,2715
2022-08-19T02:06:36.786Z,2720
2022-08-19T02:07:36.793Z,2718
2022-08-19T02:08:36.778Z,2704
2022-08-19T02:09:36.775Z,2713
2022-08-19T02:10:36.779Z,2699
2022-08-19T02:11:36.792Z,2697
2022-08-19T02:12:36.782Z,2676
2022-08-19T02:13:36.785Z,2722
2022-08-19T02:14:36.772Z,2727
2022-08-19T02:15:36.767Z,2729
2022-08-19T02:16:36.777Z,2683
2022-08-19T02:17:36.770Z,2734
2022-08-19T02:18:36.777Z,2729
2022-08-19T02:19:36.765Z,2708
2022-08-19T02:20:36.763Z,2743
2022-08-19T02:21:36.773Z,2694
2022-08-19T02:22:36.770Z,2690
2022-08-19T02:23:36.774Z,2718
2022-08-19T02:24:36.758Z,2736
2022-08-19T02:25:36.759Z,2704
2022-08-19T02:26:36.765Z,2701
2022-08-19T02:27:36.758Z,2692
2022-08-19T02:28:36.765Z,2708
2022-08-19T02:29:36.762Z,2697
2022-08-19T02:30:36.757Z,2664
2022-08-19T02:31:36.769Z,2708
2022-08-19T02:32:44.494Z,2688
2022-08-19T02:33:36.746Z,2688
2022-08-19T02:34:36.749Z,2685
2022-08-19T02:35:36.752Z,2688
2022-08-19T02:36:36.755Z,2683
2022-08-19T02:37:36.748Z,2692
2022-08-19T02:38:36.746Z,2685
2022-08-19T02:39:36.782Z,2674
2022-08-19T02:40:36.747Z,2671
2022-08-19T02:41:36.749Z,2658
2022-08-19T02:42:36.741Z,2669
2022-08-19T02:43:36.743Z,2683
2022-08-19T02:44:36.744Z,2664
2022-08-19T02:45:36.742Z,2660
2022-08-19T02:46:36.759Z,2662
2022-08-19T02:47:36.756Z,2646
2022-08-19T02:48:36.761Z,2653
2022-08-19T02:49:36.745Z,2674
2022-08-19T02:50:36.747Z,2678
2022-08-19T02:51:36.749Z,2676
2022-08-19T02:52:36.744Z,2678
2022-08-19T02:53:36.754Z,2676
2022-08-19T02:54:36.746Z,2639
2022-08-19T02:55:46.253Z,2644
2022-08-19T02:56:36.745Z,2655
2022-08-19T02:57:36.753Z,2692
2022-08-19T02:58:36.743Z,2678
2022-08-19T02:59:36.741Z,2667
2022-08-19T03:00:36.737Z,2653
2022-08-19T03:01:36.803Z,2685
2022-08-19T03:02:36.772Z,2692
2022-08-19T03:03:36.733Z,2688
2022-08-19T03:04:36.740Z,2678
2022-08-19T03:05:47.992Z,2662
2022-08-19T03:06:36.720Z,2678
2022-08-19T03:07:36.736Z,2685
2022-08-19T03:08:36.737Z,2688
2022-08-19T03:09:36.729Z,2669
2022-08-19T03:10:36.725Z,2646
2022-08-19T03:11:36.718Z,2678
2022-08-19T03:12:36.728Z,2662
2022-08-19T03:13:36.716Z,2674
2022-08-19T03:14:36.722Z,2669
2022-08-19T03:15:36.719Z,2658
2022-08-19T03:16:36.714Z,2662
2022-08-19T03:17:36.723Z,2644
2022-08-19T03:18:36.711Z,2651
2022-08-19T03:19:36.716Z,2671
2022-08-19T03:20:36.708Z,2676
2022-08-19T03:21:36.710Z,2655
2022-08-19T03:22:36.715Z,2618
2022-08-19T03:23:36.709Z,2632
2022-08-19T03:24:36.705Z,2639
2022-08-19T03:25:36.712Z,2648
2022-08-19T03:26:36.705Z,2614
2022-08-19T03:27:36.701Z,2623
2022-08-19T03:28:36.708Z,2614
2022-08-19T03:29:40.660Z,2609
2022-08-19T03:30:36.712Z,2614
2022-08-19T03:31:44.156Z,2621
2022-08-19T03:32:36.697Z,2616
2022-08-19T03:33:36.693Z,2625
2022-08-19T03:34:36.702Z,2611
2022-08-19T03:35:36.688Z,2623
2022-08-19T03:36:36.693Z,2637
2022-08-19T03:37:36.688Z,2644
2022-08-19T03:38:36.691Z,2639
2022-08-19T03:39:36.757Z,2651
2022-08-19T03:40:36.696Z,2646
2022-08-19T03:41:45.196Z,2632
2022-08-19T03:42:49.368Z,2597
2022-08-19T03:43:36.685Z,2584
2022-08-19T03:44:36.693Z,2632
2022-08-19T03:45:36.683Z,2609
2022-08-19T03:46:36.688Z,2614
2022-08-19T03:47:36.679Z,2597
2022-08-19T03:48:36.678Z,2616
2022-08-19T03:49:36.848Z,2604
2022-08-19T03:50:36.682Z,2614
2022-08-19T03:51:36.678Z,2588
2022-08-19T03:52:36.680Z,2611
2022-08-19T03:53:36.676Z,2632
2022-08-19T03:54:36.679Z,2614
2022-08-19T03:55:36.674Z,2604
2022-08-19T03:56:36.671Z,2579
2022-08-19T03:57:37.862Z,2561
2022-08-19T03:58:36.677Z,2563
2022-08-19T03:59:36.678Z,2570
2022-08-19T04:00:36.663Z,2554
2022-08-19T04:01:36.750Z,2544
2022-08-19T04:02:36.697Z,2533
2022-08-19T04:03:36.661Z,2524
2022-08-19T04:04:36.671Z,2521
2022-08-19T04:05:36.657Z,2544
2022-08-19T04:06:39.596Z,2567
2022-08-19T04:07:36.672Z,2544
2022-08-19T04:08:36.666Z,2547
2022-08-19T04:09:36.655Z,2551
2022-08-19T04:10:36.660Z,2528
2022-08-19T04:11:43.389Z,2510
2022-08-19T04:12:36.657Z,2521
2022-08-19T04:13:36.652Z,2588
2022-08-19T04:14:36.654Z,2579
2022-08-19T04:15:36.647Z,2632
2022-08-19T04:16:36.645Z,2701
2022-08-19T04:17:36.642Z,2754
2022-08-19T04:18:36.651Z,2745
2022-08-19T04:19:36.647Z,2764
2022-08-19T04:20:36.647Z,2734
2022-08-19T04:21:36.645Z,2734
2022-08-19T04:22:36.650Z,2708
2022-08-19T04:23:36.636Z,2741
2022-08-19T04:24:36.641Z,2817
2022-08-19T04:25:36.641Z,2819
2022-08-19T04:26:36.631Z,2858
2022-08-19T04:27:36.650Z,2907
2022-08-19T04:28:36.635Z,2960
2022-08-19T04:29:36.649Z,2999
2022-08-19T04:30:36.631Z,3050
2022-08-19T04:31:36.633Z,3038
2022-08-19T04:32:36.634Z,2971
2022-08-19T04:33:36.638Z,2992
2022-08-19T04:34:36.632Z,3043
2022-08-19T04:35:36.630Z,3369
2022-08-19T04:36:36.621Z,3544
2022-08-19T04:37:36.625Z,3660
2022-08-19T04:38:36.625Z,3780
2022-08-19T04:39:36.679Z,3936
2022-08-19T04:40:36.623Z,4051
2022-08-19T04:41:36.618Z,4242
2022-08-19T04:42:36.618Z,4377
2022-08-19T04:43:36.613Z,4367
2022-08-19T04:44:36.616Z,4247
2022-08-19T04:45:43.513Z,4186
2022-08-19T04:46:39.218Z,4011
2022-08-19T04:47:47.998Z,3890
2022-08-19T04:48:36.614Z,3845
2022-08-19T04:49:36.618Z,3750
2022-08-19T04:50:36.603Z,3685
2022-08-19T04:51:36.615Z,3690
2022-08-19T04:52:36.602Z,3770
2022-08-19T04:53:37.535Z,3655
2022-08-19T04:54:38.497Z,3610
2022-08-19T04:55:38.323Z,3580
2022-08-19T04:56:36.613Z,3590
2022-08-19T04:57:36.598Z,3590
2022-08-19T04:58:36.599Z,3615
2022-08-19T04:59:36.601Z,3590
2022-08-19T05:00:36.653Z,3549
2022-08-19T05:01:36.622Z,3539
2022-08-19T05:02:36.610Z,3575
2022-08-19T05:03:36.590Z,3539
2022-08-19T05:04:36.589Z,3610
2022-08-19T05:05:44.652Z,3575
2022-08-19T05:06:36.593Z,3564
2022-08-19T05:07:36.594Z,3580
2022-08-19T05:08:36.590Z,3595
2022-08-19T05:09:57.136Z,3705
2022-08-19T05:10:36.586Z,3770
2022-08-19T05:11:36.609Z,3845
2022-08-19T05:12:36.579Z,4487
2022-08-19T05:13:36.605Z,5380
2022-08-19T05:14:36.589Z,5701
2022-08-19T05:15:36.584Z,6132
2022-08-19T05:16:36.586Z,6217
2022-08-19T05:17:38.886Z,6599
2022-08-19T05:18:36.575Z,6749
2022-08-19T05:19:36.567Z,6518
2022-08-19T05:20:36.574Z,6553
2022-08-19T05:21:36.584Z,6569
2022-08-19T05:22:36.575Z,6448
2022-08-19T05:23:36.563Z,6488
2022-08-19T05:24:47.432Z,6433
2022-08-19T05:25:36.568Z,6498
2022-08-19T05:26:36.577Z,6664
2022-08-19T05:27:36.566Z,7104
2022-08-19T05:28:36.595Z,6955
2022-08-19T05:29:36.703Z,7104
2022-08-19T05:30:46.844Z,6945
2022-08-19T05:31:36.581Z,7734
2022-08-19T05:32:36.567Z,8410
2022-08-19T05:33:36.555Z,8466
2022-08-19T05:34:36.551Z,8241
2022-08-19T05:35:36.554Z,7532
2022-08-19T05:36:36.565Z,7005
2022-08-19T05:37:36.549Z,6910
2022-08-19T05:38:36.564Z,6749
2022-08-19T05:39:36.639Z,6694
2022-08-19T05:40:36.545Z,6950
2022-08-19T05:41:36.543Z,6960
2022-08-19T05:42:36.558Z,7015
2022-08-19T05:43:36.544Z,6789
2022-08-19T05:44:36.542Z,6879
2022-08-19T05:45:36.546Z,6694
2022-08-19T05:46:36.548Z,6584
2022-08-19T05:47:36.560Z,6458
2022-08-19T05:48:36.572Z,6283
2022-08-19T05:49:36.547Z,6207
2022-08-19T05:50:36.548Z,6238
2022-08-19T05:51:36.537Z,6217
2022-08-19T05:52:36.539Z,6132
2022-08-19T05:53:36.532Z,6067
2022-08-19T05:54:36.542Z,6072
2022-08-19T05:55:36.529Z,6087
2022-08-19T05:56:36.531Z,6017
2022-08-19T05:57:36.541Z,5952
2022-08-19T05:58:36.530Z,5942
2022-08-19T05:59:36.534Z,5917
2022-08-19T06:00:36.531Z,5902
2022-08-19T06:01:36.530Z,5897
2022-08-19T06:02:36.562Z,5846
2022-08-19T06:03:36.545Z,5801
2022-08-19T06:04:36.526Z,5766
2022-08-19T06:05:42.315Z,5666
2022-08-19T06:06:36.530Z,5480
2022-08-19T06:07:36.523Z,5515
2022-08-19T06:08:36.510Z,5455
2022-08-19T06:09:36.543Z,5370
2022-08-19T06:10:36.516Z,5265
2022-08-19T06:11:36.515Z,5114
2022-08-19T06:12:36.513Z,5039
2022-08-19T06:13:36.510Z,5039
2022-08-19T06:14:36.523Z,5019
2022-08-19T06:15:36.507Z,4994
2022-08-19T06:16:36.505Z,4969
2022-08-19T06:17:36.501Z,4969
2022-08-19T06:18:36.507Z,4878
2022-08-19T06:19:40.564Z,4979
2022-08-19T06:20:55.071Z,4964
2022-08-19T06:21:36.506Z,4843
2022-08-19T06:22:36.515Z,4934
2022-08-19T06:23:36.500Z,5059
2022-08-19T06:24:36.512Z,5044
2022-08-19T06:25:36.513Z,5169
2022-08-19T06:26:36.607Z,5275
2022-08-19T06:27:37.850Z,5425
2022-08-19T06:28:36.507Z,5475
2022-08-19T06:29:36.493Z,5465
2022-08-19T06:30:36.497Z,5435
2022-08-19T06:31:36.499Z,5425
2022-08-19T06:32:39.897Z,5465
2022-08-19T06:33:36.511Z,5510
2022-08-19T06:34:36.483Z,5490
2022-08-19T06:35:36.534Z,5520
2022-08-19T06:36:36.487Z,5576
2022-08-19T06:37:37.878Z,5616
2022-08-19T06:38:36.484Z,5581
2022-08-19T06:39:36.556Z,5560
2022-08-19T06:40:36.566Z,5746
2022-08-19T06:41:39.459Z,5917
2022-08-19T06:42:36.478Z,5947
2022-08-19T06:43:36.488Z,6087
2022-08-19T06:44:40.587Z,6182
2022-08-19T06:45:39.406Z,6157
2022-08-19T06:46:36.493Z,6137
2022-08-19T06:47:36.489Z,6238
2022-08-19T06:48:45.002Z,6308
2022-08-19T06:49:36.467Z,6398
2022-08-19T06:50:39.612Z,6493
2022-08-19T06:51:36.551Z,6408
2022-08-19T06:52:38.174Z,6388
2022-08-19T06:53:36.466Z,6378
2022-08-19T06:54:37.749Z,6468
2022-08-19T06:55:36.464Z,6543
2022-08-19T06:56:36.462Z,6553
2022-08-19T06:57:36.470Z,6629
2022-08-19T06:58:36.483Z,6594
2022-08-19T06:59:36.470Z,6699
2022-08-19T07:00:36.457Z,6654
2022-08-19T07:01:36.461Z,6634
2022-08-19T07:02:36.472Z,6553
2022-08-19T07:03:37.341Z,6473
2022-08-19T07:04:36.459Z,6483
2022-08-19T07:05:36.444Z,6478
2022-08-19T07:06:43.945Z,6348
2022-08-19T07:07:36.460Z,6258
2022-08-19T07:09:36.444Z,6082
2022-08-19T07:10:36.456Z,5957
2022-08-19T07:11:36.438Z,5917
2022-08-19T07:12:38.171Z,5851
2022-08-19T07:13:36.437Z,5736
2022-08-19T07:14:36.449Z,5646
2022-08-19T07:15:36.443Z,5626
2022-08-19T07:16:37.357Z,5545
2022-08-19T07:17:36.449Z,5666
2022-08-19T07:18:36.434Z,5586
2022-08-19T07:19:36.432Z,5786
2022-08-19T07:20:36.444Z,5876
2022-08-19T07:21:37.595Z,6258
2022-08-19T07:22:36.450Z,6212
2022-08-19T07:24:36.443Z,6127
2022-08-19T07:25:36.456Z,6057
2022-08-19T07:26:36.431Z,5987
2022-08-19T07:27:36.425Z,5962
2022-08-19T07:28:36.428Z,5846
2022-08-19T07:29:36.441Z,5726
2022-08-19T07:30:36.509Z,5515
2022-08-19T07:31:36.426Z,5460
2022-08-19T07:32:36.432Z,5395
2022-08-19T07:33:36.432Z,5330
2022-08-19T07:34:36.420Z,5305
2022-08-19T07:35:36.425Z,5290
2022-08-19T07:36:36.411Z,5310
2022-08-19T07:37:36.418Z,5430
2022-08-19T07:38:36.426Z,5515
2022-08-19T07:39:36.487Z,5746
2022-08-19T07:40:36.414Z,5861
2022-08-19T07:41:36.411Z,5922
2022-08-19T07:42:36.402Z,5902
2022-08-19T07:43:36.426Z,5856
2022-08-19T07:44:36.495Z,5756
2022-08-19T07:45:36.406Z,5706
2022-08-19T07:46:36.409Z,5746
2022-08-19T07:47:50.347Z,5801
2022-08-19T07:48:36.415Z,5796
2022-08-19T07:49:36.405Z,5932
2022-08-19T07:50:36.400Z,5917
2022-08-19T07:51:37.273Z,5987
2022-08-19T07:52:36.396Z,6007
2022-08-19T07:53:39.636Z,6017
2022-08-19T07:54:36.399Z,6047
2022-08-19T07:55:41.131Z,6082
2022-08-19T07:56:36.395Z,6268
2022-08-19T07:57:36.469Z,6418
2022-08-19T07:58:36.408Z,6589
2022-08-19T07:59:36.387Z,6819
2022-08-19T08:00:36.388Z,6438
2022-08-19T08:01:36.421Z,6102
2022-08-19T08:02:36.404Z,6032
2022-08-19T08:03:36.419Z,5967
2022-08-19T08:04:36.382Z,5972
2022-08-19T08:05:38.749Z,6017
2022-08-19T08:06:36.401Z,5922
2022-08-19T08:07:36.373Z,5721
2022-08-19T08:08:36.383Z,5781
2022-08-19T08:09:39.272Z,5876
2022-08-19T08:10:36.381Z,5776
2022-08-19T08:11:36.388Z,5641
2022-08-19T08:12:36.390Z,5500
2022-08-19T08:13:36.367Z,5345
2022-08-19T08:14:36.366Z,5204
2022-08-19T08:15:41.308Z,5129
2022-08-19T08:16:39.414Z,5049
2022-08-19T08:17:49.477Z,5029
2022-08-19T08:18:36.381Z,5004
2022-08-19T08:19:36.369Z,5004
2022-08-19T08:20:36.362Z,4929
2022-08-19T08:21:36.445Z,4843
2022-08-19T08:22:36.376Z,4828
2022-08-19T08:23:36.375Z,4818
2022-08-19T08:24:36.355Z,5009
2022-08-19T08:25:36.393Z,5084
2022-08-19T08:26:36.356Z,5069
2022-08-19T08:27:36.355Z,5074
2022-08-19T08:28:36.369Z,5174
2022-08-19T08:29:36.354Z,5129
2022-08-19T08:30:36.353Z,5285
2022-08-19T08:31:36.348Z,5380
2022-08-19T08:32:36.344Z,5450
2022-08-19T08:33:36.360Z,5550
2022-08-19T08:34:36.350Z,5485
2022-08-19T08:35:36.347Z,5445
2022-08-19T08:36:36.362Z,5470
2022-08-19T08:37:36.340Z,5375
2022-08-19T08:38:39.683Z,5235
2022-08-19T08:39:36.381Z,5144
2022-08-19T08:40:36.343Z,5179
2022-08-19T08:41:36.345Z,5134
2022-08-19T08:42:36.344Z,5139
2022-08-19T08:43:36.353Z,5219
2022-08-19T08:44:36.340Z,5034
2022-08-19T08:45:41.184Z,5144
2022-08-19T08:46:36.329Z,5194
2022-08-19T08:47:36.357Z,5325
2022-08-19T08:48:36.340Z,5370
2022-08-19T08:49:36.334Z,5325
2022-08-19T08:50:36.349Z,5310
2022-08-19T08:51:36.390Z,5380
2022-08-19T08:52:36.389Z,5591
2022-08-19T08:53:40.451Z,5510
2022-08-19T08:54:36.378Z,5786
2022-08-19T08:55:36.865Z,5741
2022-08-19T08:56:36.332Z,5781
2022-08-19T08:57:40.820Z,5696
2022-08-19T08:58:36.359Z,5746
2022-08-19T08:59:36.359Z,5771
2022-08-19T09:00:36.349Z,5786
2022-08-19T09:01:36.369Z,5756
2022-08-19T09:02:36.354Z,5450
2022-08-19T09:03:36.373Z,5270
2022-08-19T09:04:36.337Z,5179
2022-08-19T09:05:39.524Z,5164
2022-08-19T09:06:36.337Z,5350
2022-08-19T09:07:38.016Z,5576
2022-08-19T09:08:36.338Z,5711
2022-08-19T09:09:36.331Z,5821
2022-08-19T09:10:36.342Z,5841
2022-08-19T09:11:42.386Z,5897
2022-08-19T09:12:36.342Z,5881
2022-08-19T09:13:37.370Z,5957
2022-08-19T09:14:52.031Z,5886
2022-08-19T09:15:36.845Z,5886
2022-08-19T09:16:36.318Z,6202
2022-08-19T09:17:36.544Z,6157
2022-08-19T09:18:36.340Z,6087
2022-08-19T09:19:36.326Z,6072
2022-08-19T09:20:36.313Z,5992
2022-08-19T09:21:36.316Z,5952
2022-08-19T09:22:36.331Z,6107
2022-08-19T09:23:36.320Z,6192
2022-08-19T09:24:36.329Z,6283
2022-08-19T09:25:36.327Z,6363
2022-08-19T09:26:47.552Z,6368
2022-08-19T09:27:42.723Z,6368
2022-08-19T09:28:36.308Z,6373
2022-08-19T09:29:36.306Z,6388
2022-08-19T09:30:36.328Z,6343
2022-08-19T09:31:36.306Z,6258
2022-08-19T09:32:36.326Z,6167
2022-08-19T09:33:36.306Z,6182
2022-08-19T09:34:37.929Z,6147
2022-08-19T09:35:50.115Z,6052
2022-08-19T09:36:36.316Z,6032
2022-08-19T09:37:36.314Z,6012
2022-08-19T09:38:36.296Z,5907
2022-08-19T09:39:36.299Z,5826
2022-08-19T09:40:38.514Z,5776
2022-08-19T09:41:36.298Z,5771
2022-08-19T09:42:36.298Z,5776
2022-08-19T09:43:44.600Z,5751
2022-08-19T09:44:36.310Z,5716
2022-08-19T09:45:36.292Z,5591
2022-08-19T09:46:36.292Z,5545
2022-08-19T09:47:36.317Z,5651
2022-08-19T09:48:36.307Z,5626
2022-08-19T09:49:36.315Z,5701
2022-08-19T09:50:36.284Z,5791
2022-08-19T09:51:36.289Z,5801
2022-08-19T09:52:36.295Z,5621
2022-08-19T09:53:36.295Z,5495
2022-08-19T09:54:37.077Z,5480
2022-08-19T09:55:36.285Z,5385
2022-08-19T09:56:36.293Z,5380
2022-08-19T09:57:36.274Z,5300
2022-08-19T09:58:36.294Z,5300
2022-08-19T09:59:36.288Z,5245
2022-08-19T10:00:36.274Z,5280
2022-08-19T10:01:36.286Z,5390
2022-08-19T10:02:36.276Z,5395
2022-08-19T10:03:36.306Z,5390
2022-08-19T10:04:36.266Z,5470
2022-08-19T10:05:36.280Z,5535
2022-08-19T10:06:44.098Z,5525
2022-08-19T10:07:36.761Z,5475
2022-08-19T10:08:36.261Z,5435
2022-08-19T10:09:36.259Z,5450
2022-08-19T10:10:36.259Z,5465
2022-08-19T10:11:40.623Z,5365
2022-08-19T10:12:36.260Z,5255
2022-08-19T10:13:36.260Z,5250
2022-08-19T10:14:36.281Z,5164
2022-08-19T10:15:45.234Z,5109
2022-08-19T10:16:39.563Z,5019
2022-08-19T10:17:36.257Z,4883
2022-08-19T10:18:36.252Z,4758
2022-08-19T10:19:36.242Z,4743
2022-08-19T10:20:36.247Z,4588
2022-08-19T10:21:36.266Z,4517
2022-08-19T10:22:36.257Z,4583
2022-08-19T10:23:36.244Z,4527
2022-08-19T10:24:36.248Z,4452
2022-08-19T10:25:36.241Z,4593
2022-08-19T10:26:36.255Z,4583
2022-08-19T10:27:36.242Z,4643
2022-08-19T10:28:36.239Z,4623
2022-08-19T10:29:36.234Z,4808
2022-08-19T10:30:36.234Z,4828
2022-08-19T10:31:59.835Z,4858
2022-08-19T10:32:36.237Z,4673
2022-08-19T10:33:40.939Z,4638
2022-08-19T10:34:36.255Z,4618
2022-08-19T10:35:42.796Z,4703
2022-08-19T10:36:36.236Z,4853
2022-08-19T10:37:36.235Z,4833
2022-08-19T10:38:36.227Z,5089
2022-08-19T10:39:42.474Z,5054
2022-08-19T10:40:36.303Z,4758
2022-08-19T10:41:36.224Z,4633
2022-08-19T10:42:36.238Z,4608
2022-08-19T10:43:36.224Z,4552
2022-08-19T10:44:36.222Z,4532
2022-08-19T10:45:36.240Z,4542
2022-08-19T10:46:36.228Z,4522
2022-08-19T10:47:36.244Z,4452
2022-08-19T10:48:36.210Z,4372
2022-08-19T10:49:36.220Z,4307
2022-08-19T10:50:36.224Z,4277
2022-08-19T10:51:36.229Z,4196
2022-08-19T10:52:39.119Z,4171
2022-08-19T10:53:36.211Z,4191
2022-08-19T10:54:36.211Z,4191
2022-08-19T10:55:36.210Z,4216
2022-08-19T10:56:36.220Z,4387
2022-08-19T10:57:59.318Z,4402
2022-08-19T10:58:36.207Z,4397
2022-08-19T10:59:36.390Z,4387
2022-08-19T11:00:36.205Z,4487
2022-08-19T11:01:36.299Z,4578
2022-08-19T11:02:36.249Z,4623
2022-08-19T11:03:36.243Z,4703
2022-08-19T11:04:36.204Z,4658
2022-08-19T11:05:39.868Z,4633
2022-08-19T11:06:36.197Z,4598
2022-08-19T11:07:36.195Z,4648
2022-08-19T11:08:36.220Z,4562
2022-08-19T11:09:36.207Z,4608
2022-08-19T11:10:36.195Z,4537
2022-08-19T11:11:39.352Z,4522
2022-08-19T11:12:36.195Z,4628
2022-08-19T11:13:36.224Z,4517
2022-08-19T11:14:36.190Z,4527
2022-08-19T11:15:36.179Z,4522
2022-08-19T11:16:36.201Z,4497
2022-08-19T11:17:36.183Z,4417
2022-08-19T11:18:36.184Z,4387
2022-08-19T11:19:36.182Z,4447
2022-08-19T11:20:36.186Z,4412
2022-08-19T11:21:36.197Z,4432
2022-08-19T11:22:40.579Z,4362
2022-08-19T11:23:36.189Z,4352
2022-08-19T11:24:36.172Z,4347
2022-08-19T11:25:36.171Z,4272
2022-08-19T11:26:36.176Z,4181
2022-08-19T11:27:36.172Z,4166
2022-08-19T11:28:36.206Z,4176
2022-08-19T11:29:36.170Z,4161
2022-08-19T11:30:36.169Z,4166
2022-08-19T11:31:36.161Z,4136
2022-08-19T11:32:36.166Z,4056
2022-08-19T11:33:36.177Z,4051
2022-08-19T11:34:36.165Z,4031
2022-08-19T11:35:36.161Z,3961
2022-08-19T11:36:36.178Z,3926
2022-08-19T11:37:36.165Z,3921
2022-08-19T11:38:36.160Z,3906
2022-08-19T11:39:36.210Z,3986
2022-08-19T11:40:36.187Z,3971
2022-08-19T11:41:36.154Z,3865
2022-08-19T11:42:36.154Z,3951
2022-08-19T11:43:37.602Z,3926
2022-08-19T11:44:36.870Z,3895
2022-08-19T11:45:36.166Z,3850
2022-08-19T11:46:36.147Z,3790
2022-08-19T11:47:36.149Z,3890
2022-08-19T11:48:36.157Z,3840
2022-08-19T11:49:36.150Z,3895
2022-08-19T11:50:36.144Z,3906
2022-08-19T11:51:36.159Z,3795
2022-08-19T11:52:36.141Z,3700
2022-08-19T11:53:36.145Z,3715
2022-08-19T11:54:36.139Z,3715
2022-08-19T11:55:36.139Z,3755
2022-08-19T11:56:36.155Z,3775
2022-08-19T11:57:36.142Z,3916
2022-08-19T11:58:36.135Z,4056
2022-08-19T11:59:36.181Z,4116
2022-08-19T12:00:36.133Z,4181
2022-08-19T12:01:36.134Z,4227
2022-08-19T12:02:36.133Z,4282
2022-08-19T12:03:36.210Z,4342
2022-08-19T12:04:36.147Z,4457
2022-08-19T12:05:36.146Z,4618
2022-08-19T12:06:36.122Z,4648
2022-08-19T12:07:36.190Z,4653
2022-08-19T12:08:36.125Z,4562
2022-08-19T12:09:36.124Z,4542
2022-08-19T12:10:36.137Z,4603
2022-08-19T12:11:36.115Z,4643
2022-08-19T12:12:36.120Z,4638
2022-08-19T12:13:36.118Z,4603
2022-08-19T12:14:36.125Z,4663
2022-08-19T12:15:36.924Z,4678
2022-08-19T12:16:37.803Z,4583
2022-08-19T12:17:36.120Z,4603
2022-08-19T12:18:36.127Z,4593
2022-08-19T12:19:36.113Z,4522
2022-08-19T12:20:36.513Z,4557
2022-08-19T12:21:36.134Z,4583
2022-08-19T12:22:36.112Z,4327
2022-08-19T12:23:36.110Z,4237
2022-08-19T12:24:36.102Z,4161
2022-08-19T12:25:36.100Z,4076
2022-08-19T12:26:36.119Z,3966
2022-08-19T12:27:40.785Z,3880
2022-08-19T12:28:36.103Z,3860
2022-08-19T12:29:36.104Z,3790
2022-08-19T12:30:36.101Z,3655
2022-08-19T12:31:36.111Z,3735
2022-08-19T12:32:36.099Z,3720
2022-08-19T12:33:36.103Z,3665
2022-08-19T12:34:36.088Z,3670
2022-08-19T12:35:36.097Z,3655
2022-08-19T12:36:36.126Z,3705
2022-08-19T12:37:36.099Z,3745
2022-08-19T12:38:36.103Z,3730
2022-08-19T12:39:36.214Z,3735
2022-08-19T12:40:36.081Z,3755
2022-08-19T12:41:36.127Z,3785
2022-08-19T12:42:36.085Z,3720
2022-08-19T12:43:36.087Z,3680
2022-08-19T12:44:36.082Z,3605
2022-08-19T12:45:36.078Z,3494
2022-08-19T12:46:36.090Z,3575
2022-08-19T12:47:38.790Z,3665
2022-08-19T12:48:36.075Z,3770
2022-08-19T12:49:53.160Z,3800
2022-08-19T12:50:36.084Z,3740
2022-08-19T12:51:36.074Z,3830
2022-08-19T12:52:36.073Z,3805
2022-08-19T12:53:39.204Z,3775
2022-08-19T12:54:36.073Z,3800
2022-08-19T12:55:36.067Z,3845
2022-08-19T12:56:36.064Z,3850
2022-08-19T12:57:36.068Z,3805
2022-08-19T12:58:36.086Z,3890
2022-08-19T12:59:36.067Z,3805
2022-08-19T13:00:36.121Z,3825
2022-08-19T13:01:36.061Z,3845
2022-08-19T13:02:38.155Z,3855
2022-08-19T13:03:40.347Z,3820
2022-08-19T13:04:36.054Z,3740
2022-08-19T13:05:37.050Z,3635
2022-08-19T13:06:36.057Z,3479
2022-08-19T13:07:36.071Z,3319
2022-08-19T13:08:36.071Z,3198
2022-08-19T13:09:36.057Z,3183
2022-08-19T13:10:36.058Z,3148
2022-08-19T13:11:36.063Z,3218
2022-08-19T13:12:36.051Z,3274
2022-08-19T13:13:36.065Z,3359
2022-08-19T13:14:36.054Z,3374
2022-08-19T13:15:36.051Z,3394
2022-08-19T13:16:36.045Z,3329
2022-08-19T13:17:36.043Z,3334
2022-08-19T13:18:36.053Z,3374
2022-08-19T13:19:36.043Z,3464
2022-08-19T13:20:36.045Z,3424